createdAt,value
2022-11-07T00:01:51.380Z,61.30
2022-11-07T00:04:18.180Z,52.08
2022-11-07T00:06:44.920Z,56.85
2022-11-07T00:09:11.698Z,51.85
2022-11-07T00:11:38.389Z,53.92
2022-11-07T00:14:06.243Z,55.08
2022-11-07T00:16:33.214Z,53.13
2022-11-07T00:18:59.934Z,49.90
2022-11-07T00:21:26.694Z,56.25
2022-11-07T00:23:53.380Z,57.85
2022-11-07T00:26:20.117Z,53.20
2022-11-07T00:28:47.403Z,48.25
2022-11-07T00:31:16.332Z,54.33
2022-11-07T00:33:43.933Z,51.10
2022-11-07T00:36:18.697Z,47.38
2022-11-07T00:38:45.927Z,50.85
2022-11-07T00:41:13.076Z,49.08
2022-11-07T00:43:39.855Z,51.63
2022-11-07T00:46:08.298Z,42.13
2022-11-07T00:48:35.508Z,45.88
2022-11-07T00:51:10.464Z,39.75
2022-11-07T00:53:39.038Z,42.58
2022-11-07T00:56:09.395Z,53.45
2022-11-07T00:58:37.061Z,52.55
2022-11-07T01:01:20.187Z,51.25
2022-11-07T01:04:06.318Z,56.08
2022-11-07T01:06:34.992Z,52.38
2022-11-07T01:09:02.114Z,52.60
2022-11-07T01:11:31.350Z,48.97
2022-11-07T01:13:59.867Z,53.85
2022-11-07T01:16:27.562Z,55.25
2022-11-07T01:18:54.508Z,55.55
2022-11-07T01:21:21.583Z,53.20
2022-11-07T01:23:48.609Z,53.03
2022-11-07T01:26:16.039Z,58.35
2022-11-07T01:28:42.935Z,55.72
2022-11-07T01:31:12.556Z,63.80
2022-11-07T01:33:40.560Z,58.50
2022-11-07T01:36:11.797Z,57.25
2022-11-07T01:38:45.467Z,52.13
2022-11-07T01:41:21.244Z,66.53
2022-11-07T01:44:02.209Z,55.05
2022-11-07T01:46:41.756Z,55.25
2022-11-07T01:49:11.861Z,56.22
2022-11-07T01:51:55.666Z,56.45
2022-11-07T01:54:25.171Z,49.47
2022-11-07T01:56:56.155Z,50.38
2022-11-07T01:59:26.732Z,49.47
2022-11-07T02:01:54.867Z,52.42
2022-11-07T02:04:25.559Z,58.15
2022-11-07T02:07:03.162Z,48.17
2022-11-07T02:09:30.264Z,49.88
2022-11-07T02:12:01.048Z,48.42
2022-11-07T02:14:31.027Z,50.72
2022-11-07T02:17:00.180Z,52.53
2022-11-07T02:19:39.428Z,48.58
2022-11-07T02:22:43.202Z,51.00
2022-11-07T02:25:13.330Z,45.17
2022-11-07T02:27:42.534Z,43.90
2022-11-07T02:30:13.319Z,42.13
2022-11-07T02:32:40.580Z,49.28
2022-11-07T02:35:30.335Z,44.60
2022-11-07T02:37:58.363Z,47.85
2022-11-07T02:40:25.311Z,43.67
2022-11-07T02:42:52.364Z,48.03
2022-11-07T02:45:29.407Z,46.05
2022-11-07T02:47:58.782Z,49.17
2022-11-07T02:50:25.892Z,48.72
2022-11-07T02:52:52.599Z,48.97
2022-11-07T02:55:19.426Z,57.42
2022-11-07T02:58:06.528Z,50.33
2022-11-07T03:00:53.300Z,51.33
2022-11-07T03:03:43.299Z,59.92
2022-11-07T03:06:30.008Z,61.53
2022-11-07T03:09:16.615Z,56.05
2022-11-07T03:12:03.405Z,55.55
2022-11-07T03:14:50.070Z,58.72
2022-11-07T03:17:35.642Z,57.03
2022-11-07T03:20:22.225Z,55.53
2022-11-07T03:23:08.945Z,61.72
2022-11-07T03:25:55.755Z,59.38
2022-11-07T03:28:43.918Z,59.70
2022-11-07T03:31:31.474Z,64.25
2022-11-07T03:34:18.177Z,66.43
2022-11-07T03:37:05.138Z,64.95
2022-11-07T03:39:50.158Z,60.33
2022-11-07T03:42:40.755Z,58.63
2022-11-07T03:45:27.446Z,59.15
2022-11-07T03:48:14.033Z,59.42
2022-11-07T03:51:01.045Z,60.42
2022-11-07T03:53:47.666Z,62.50
2022-11-07T03:56:34.315Z,58.45
2022-11-07T03:59:21.060Z,53.83
2022-11-07T04:02:08.861Z,53.90
2022-11-07T04:04:55.834Z,58.40
2022-11-07T04:07:42.474Z,61.13
2022-11-07T04:10:29.200Z,59.30
2022-11-07T04:13:36.828Z,56.65
2022-11-07T04:16:42.005Z,57.35
2022-11-07T04:19:28.680Z,57.92
2022-11-07T04:22:15.499Z,61.08
2022-11-07T04:25:02.241Z,53.25
2022-11-07T04:27:50.276Z,53.65
2022-11-07T04:30:37.212Z,54.22
2022-11-07T04:33:23.867Z,54.70
2022-11-07T04:36:10.516Z,55.88
2022-11-07T04:38:57.141Z,43.28
2022-11-07T04:41:43.777Z,44.75
2022-11-07T04:44:30.386Z,39.35
2022-11-07T04:47:17.005Z,44.58
2022-11-07T04:50:04.738Z,40.58
2022-11-07T04:52:52.296Z,35.60
2022-11-07T04:55:38.896Z,35.35
2022-11-07T04:58:25.486Z,38.00
2022-11-07T05:01:12.191Z,33.92
2022-11-07T05:03:58.846Z,40.05
2022-11-07T05:06:45.478Z,35.78
2022-11-07T05:09:33.081Z,33.75
2022-11-07T05:12:20.076Z,34.25
2022-11-07T05:15:09.628Z,36.65
2022-11-07T05:17:55.083Z,37.40
2022-11-07T05:20:42.732Z,37.85
2022-11-07T05:23:29.369Z,32.70
2022-11-07T05:26:16.011Z,31.73
2022-11-07T05:29:02.875Z,28.00
2022-11-07T05:31:49.569Z,33.08
2022-11-07T05:34:36.377Z,26.75
2022-11-07T05:37:22.999Z,28.40
2022-11-07T05:40:10.318Z,25.38
2022-11-07T05:43:05.362Z,27.65
2022-11-07T05:45:52.505Z,26.92
2022-11-07T05:48:39.106Z,20.90
2022-11-07T05:51:25.762Z,23.50
2022-11-07T05:54:11.999Z,23.00
2022-11-07T05:56:59.121Z,18.20
2022-11-07T05:59:45.763Z,18.20
2022-11-07T06:02:32.479Z,12.45
2022-11-07T06:05:23.877Z,8.48
2022-11-07T06:08:13.183Z,8.38
2022-11-07T06:11:03.793Z,10.25
2022-11-07T06:13:50.391Z,6.10
2022-11-07T06:16:37.303Z,6.38
2022-11-07T06:19:23.923Z,6.47
2022-11-07T06:22:10.567Z,4.05
2022-11-07T06:24:57.469Z,5.65
2022-11-07T06:27:44.302Z,6.65
2022-11-07T06:30:31.849Z,4.55
2022-11-07T06:33:19.974Z,6.53
2022-11-07T06:36:09.563Z,4.75
2022-11-07T06:38:56.227Z,4.75
2022-11-07T06:41:42.860Z,4.43
2022-11-07T06:44:29.489Z,6.93
2022-11-07T06:47:16.078Z,8.10
2022-11-07T06:50:02.692Z,9.15
2022-11-07T06:52:49.567Z,10.98
2022-11-07T06:55:37.238Z,8.60
2022-11-07T06:58:24.040Z,7.88
2022-11-07T07:01:13.631Z,9.88
2022-11-07T07:04:00.821Z,9.00
2022-11-07T07:06:46.038Z,10.27
2022-11-07T07:09:31.255Z,9.27
2022-11-07T07:12:16.563Z,10.70
2022-11-07T07:15:02.487Z,9.70
2022-11-07T07:17:49.727Z,9.40
2022-11-07T07:20:34.952Z,9.10
2022-11-07T07:23:21.704Z,12.27
2022-11-07T07:26:11.650Z,10.70
2022-11-07T07:28:56.671Z,12.60
2022-11-07T07:31:41.850Z,10.63
2022-11-07T07:34:26.833Z,12.23
2022-11-07T07:37:12.573Z,12.10
2022-11-07T07:40:00.632Z,13.70
2022-11-07T07:42:46.503Z,13.25
2022-11-07T07:45:32.252Z,15.00
2022-11-07T07:48:17.790Z,13.10
2022-11-07T07:51:03.246Z,12.20
2022-11-07T07:53:48.677Z,11.18
2022-11-07T07:56:33.727Z,15.02
2022-11-07T07:59:19.448Z,13.00
2022-11-07T08:02:05.067Z,16.02
2022-11-07T08:04:50.275Z,14.93
2022-11-07T08:07:35.361Z,12.63
2022-11-07T08:10:41.037Z,14.27
2022-11-07T08:13:27.010Z,14.13
2022-11-07T08:16:12.084Z,12.40
2022-11-07T08:18:58.074Z,16.42
2022-11-07T08:21:44.611Z,13.73
2022-11-07T08:24:17.148Z,13.85
2022-11-07T08:26:44.226Z,16.77
2022-11-07T08:29:11.204Z,14.82
2022-11-07T08:31:38.353Z,15.77
2022-11-07T08:34:05.085Z,15.88
2022-11-07T08:36:31.861Z,14.40
2022-11-07T08:38:59.031Z,13.15
2022-11-07T08:41:26.617Z,14.30
2022-11-07T08:43:53.317Z,17.27
2022-11-07T08:46:20.002Z,16.50
2022-11-07T08:48:46.697Z,16.95
2022-11-07T08:51:13.379Z,13.65
2022-11-07T08:53:40.099Z,18.20
2022-11-07T08:56:09.586Z,13.15
2022-11-07T08:58:37.508Z,15.00
2022-11-07T09:01:10.736Z,14.98
2022-11-07T09:06:19.980Z,15.15
2022-11-07T09:08:46.842Z,13.57
2022-11-07T09:11:15.873Z,16.58
2022-11-07T09:13:42.848Z,18.80
2022-11-07T09:16:10.096Z,23.20
2022-11-07T09:18:36.873Z,16.25
2022-11-07T09:21:03.780Z,16.50
2022-11-07T09:23:31.114Z,13.82
2022-11-07T09:26:01.312Z,15.02
2022-11-07T09:28:28.627Z,18.13
2022-11-07T09:30:56.953Z,15.55
2022-11-07T09:33:24.548Z,17.05
2022-11-07T09:35:52.229Z,12.52
2022-11-07T09:38:19.544Z,16.55
2022-11-07T09:41:06.241Z,15.90
2022-11-07T09:43:52.085Z,16.15
2022-11-07T09:46:36.548Z,15.75
2022-11-07T09:49:15.193Z,16.98
2022-11-07T09:51:47.726Z,15.40
2022-11-07T09:54:21.740Z,14.18
2022-11-07T09:56:49.210Z,14.52
2022-11-07T09:59:33.853Z,17.27
2022-11-07T10:02:00.754Z,13.13
2022-11-07T10:04:27.705Z,13.30
2022-11-07T10:07:17.729Z,13.32
2022-11-07T10:09:56.001Z,12.48
2022-11-07T10:12:44.683Z,13.63
2022-11-07T10:15:33.790Z,12.70
2022-11-07T10:18:23.920Z,17.42
2022-11-07T10:21:31.143Z,18.42
2022-11-07T10:24:37.896Z,13.00
2022-11-07T10:27:10.437Z,11.60
2022-11-07T10:29:53.949Z,11.68
2022-11-07T10:35:14.246Z,15.77
2022-11-07T10:37:40.956Z,10.82
2022-11-07T10:40:16.907Z,15.75
2022-11-07T10:42:47.085Z,11.27
2022-11-07T10:45:17.296Z,14.25
2022-11-07T10:47:55.261Z,11.35
2022-11-07T10:50:23.466Z,12.13
2022-11-07T10:53:09.818Z,11.82
2022-11-07T10:55:45.822Z,11.45
2022-11-07T10:58:25.354Z,11.60
2022-11-07T11:01:09.847Z,10.98
2022-11-07T11:03:46.238Z,9.90
2022-11-07T11:06:18.932Z,9.88
2022-11-07T11:08:51.576Z,11.10
2022-11-07T11:11:36.161Z,13.85
2022-11-07T11:14:11.615Z,11.10
2022-11-07T11:16:40.579Z,9.50
2022-11-07T11:19:18.024Z,12.23
2022-11-07T11:21:47.653Z,10.52
2022-11-07T11:24:29.928Z,11.35
2022-11-07T11:27:03.644Z,13.50
2022-11-07T11:29:39.797Z,10.18
2022-11-07T11:32:17.930Z,13.40
2022-11-07T11:35:00.863Z,13.20
2022-11-07T11:37:27.719Z,11.95
2022-11-07T11:40:02.511Z,15.50
2022-11-07T11:42:53.763Z,8.93
2022-11-07T11:45:49.145Z,8.65
2022-11-07T11:48:49.542Z,9.98
2022-11-07T11:51:41.011Z,11.20
2022-11-07T11:54:14.231Z,8.82
2022-11-07T11:59:16.641Z,10.90
2022-11-07T12:02:07.636Z,12.25
2022-11-07T12:05:09.041Z,8.38
2022-11-07T12:07:53.076Z,10.65
2022-11-07T12:10:28.630Z,10.98
2022-11-07T12:13:15.060Z,10.35
2022-11-07T12:15:52.662Z,11.23
2022-11-07T12:18:27.770Z,9.00
2022-11-07T12:21:25.651Z,11.60
2022-11-07T12:24:16.518Z,7.07
2022-11-07T12:26:58.532Z,8.38
2022-11-07T12:29:51.910Z,9.07
2022-11-07T12:32:39.298Z,7.40
2022-11-07T12:35:21.368Z,8.68
2022-11-07T12:38:06.552Z,10.23
2022-11-07T12:40:51.341Z,8.15
2022-11-07T12:43:46.860Z,8.05
2022-11-07T12:46:22.253Z,7.00
2022-11-07T12:49:07.488Z,9.85
2022-11-07T12:52:08.527Z,7.75
2022-11-07T12:54:37.927Z,8.05
2022-11-07T12:57:12.443Z,6.60
2022-11-07T12:59:41.266Z,7.45
2022-11-07T13:02:26.552Z,8.48
2022-11-07T13:05:08.535Z,6.65
2022-11-07T13:07:41.238Z,8.82
2022-11-07T13:10:25.078Z,13.52
2022-11-07T13:13:18.205Z,11.45
2022-11-07T13:16:13.547Z,7.60
2022-11-07T13:18:32.131Z,12.88
2022-11-07T13:21:05.501Z,5.45
2022-11-07T13:23:33.228Z,9.15
2022-11-07T13:26:10.732Z,10.20
2022-11-07T13:29:02.001Z,6.30
2022-11-07T13:31:40.408Z,5.65
2022-11-07T13:34:23.380Z,8.82
2022-11-07T13:36:56.242Z,6.78
2022-11-07T13:39:24.791Z,7.20
2022-11-07T13:41:52.052Z,5.72
2022-11-07T13:44:31.492Z,7.30
2022-11-07T13:47:02.849Z,7.60
2022-11-07T13:49:45.058Z,8.65
2022-11-07T13:52:53.782Z,6.85
2022-11-07T13:55:25.371Z,6.65
2022-11-07T13:58:03.465Z,6.65
2022-11-07T14:00:32.401Z,7.43
2022-11-07T14:03:00.285Z,4.35
2022-11-07T14:05:29.585Z,5.63
2022-11-07T14:08:02.378Z,6.82
2022-11-07T14:10:39.598Z,4.88
2022-11-07T14:13:22.739Z,6.65
2022-11-07T14:16:32.996Z,6.35
2022-11-07T14:19:07.640Z,7.10
2022-11-07T14:21:36.957Z,6.88
2022-11-07T14:24:20.024Z,3.72
2022-11-07T14:26:57.155Z,4.15
2022-11-07T14:29:23.840Z,3.90
2022-11-07T14:31:50.700Z,5.38
2022-11-07T14:34:18.639Z,3.20
2022-11-07T14:37:21.076Z,12.00
2022-11-07T14:39:48.704Z,12.75
2022-11-07T14:42:19.348Z,6.90
2022-11-07T14:44:54.955Z,5.63
2022-11-07T14:47:26.940Z,4.78
2022-11-07T14:49:54.580Z,6.00
2022-11-07T14:52:24.358Z,3.08
2022-11-07T14:55:03.256Z,4.40
2022-11-07T14:57:31.187Z,5.10
2022-11-07T14:59:58.105Z,8.15
2022-11-07T15:02:34.929Z,8.38
2022-11-07T15:05:09.533Z,11.13
2022-11-07T15:07:47.467Z,6.63
2022-11-07T15:10:24.633Z,7.07
2022-11-07T15:12:54.025Z,5.85
2022-11-07T15:15:22.014Z,6.18
2022-11-07T15:17:55.071Z,7.25
2022-11-07T15:20:39.898Z,7.50
2022-11-07T15:23:14.099Z,10.30
2022-11-07T15:25:51.104Z,11.75
2022-11-07T15:28:25.387Z,10.55
2022-11-07T15:30:55.128Z,9.43
2022-11-07T15:33:23.274Z,9.98
2022-11-07T15:35:55.280Z,10.88
2022-11-07T15:38:24.926Z,10.77
2022-11-07T15:40:52.060Z,9.43
2022-11-07T15:43:20.043Z,10.65
2022-11-07T15:45:49.322Z,13.18
2022-11-07T15:48:25.719Z,15.52
2022-11-07T15:50:52.558Z,8.95
2022-11-07T15:53:28.020Z,14.23
2022-11-07T15:55:59.194Z,14.10
2022-11-07T15:58:28.301Z,9.98
2022-11-07T16:00:55.860Z,18.33
2022-11-07T16:03:24.708Z,11.70
2022-11-07T16:05:54.355Z,13.30
2022-11-07T16:08:24.016Z,12.82
2022-11-07T16:10:53.794Z,12.15
2022-11-07T16:13:20.729Z,9.70
2022-11-07T16:15:57.601Z,11.20
2022-11-07T16:18:24.588Z,11.82
2022-11-07T16:20:51.890Z,15.60
2022-11-07T16:23:19.213Z,15.73
2022-11-07T16:25:49.902Z,14.55
2022-11-07T16:28:31.938Z,15.50
2022-11-07T16:30:59.264Z,11.70
2022-11-07T16:33:26.993Z,16.17
2022-11-07T16:35:59.989Z,11.73
2022-11-07T16:38:32.565Z,16.67
2022-11-07T16:41:00.741Z,15.25
2022-11-07T16:43:27.471Z,17.92
2022-11-07T16:45:57.582Z,17.83
2022-11-07T16:48:28.914Z,14.90
2022-11-07T16:50:57.033Z,19.60
2022-11-07T16:53:25.309Z,18.92
2022-11-07T16:55:55.366Z,15.90
2022-11-07T16:58:28.303Z,17.00
2022-11-07T17:00:56.714Z,21.63
2022-11-07T17:03:27.738Z,16.35
2022-11-07T17:05:57.412Z,18.30
2022-11-07T17:08:26.955Z,17.45
2022-11-07T17:10:55.863Z,18.73
2022-11-07T17:13:23.210Z,30.45
2022-11-07T17:15:50.466Z,19.33
2022-11-07T17:18:22.408Z,19.30
2022-11-07T17:20:51.632Z,20.33
2022-11-07T17:23:19.589Z,25.15
2022-11-07T17:25:53.381Z,36.35
2022-11-07T17:28:21.009Z,26.25
2022-11-07T17:30:47.765Z,24.92
2022-11-07T17:33:15.801Z,28.48
2022-11-07T17:35:42.729Z,21.50
2022-11-07T17:38:17.277Z,31.63
2022-11-07T17:40:44.547Z,28.42
2022-11-07T17:43:11.299Z,38.28
2022-11-07T17:45:38.419Z,39.80
2022-11-07T17:48:05.343Z,29.23
2022-11-07T17:50:32.072Z,30.27
2022-11-07T17:52:58.761Z,33.03
2022-11-07T17:55:25.601Z,21.52
2022-11-07T17:57:52.446Z,18.73
2022-11-07T18:00:22.657Z,20.02
2022-11-07T18:02:53.695Z,20.20
2022-11-07T18:05:30.123Z,20.75
2022-11-07T18:07:59.698Z,22.67
2022-11-07T18:10:26.523Z,21.65
2022-11-07T18:12:56.965Z,20.73
2022-11-07T18:15:23.709Z,28.35
2022-11-07T18:17:53.244Z,21.35
2022-11-07T18:20:19.937Z,22.42
2022-11-07T18:22:46.903Z,21.30
2022-11-07T18:25:13.682Z,19.58
2022-11-07T18:27:40.361Z,21.23
2022-11-07T18:30:09.013Z,20.13
2022-11-07T18:32:38.824Z,20.88
2022-11-07T18:35:06.464Z,31.08
2022-11-07T18:37:35.690Z,25.10
2022-11-07T18:40:02.798Z,24.35
2022-11-07T18:42:31.104Z,24.38
2022-11-07T18:44:57.815Z,24.20
2022-11-07T18:47:24.702Z,27.00
2022-11-07T18:49:55.750Z,24.67
2022-11-07T18:52:24.256Z,27.70
2022-11-07T18:54:51.579Z,24.45
2022-11-07T18:57:18.293Z,24.27
2022-11-07T18:59:45.774Z,26.80
2022-11-07T19:02:14.289Z,26.17
2022-11-07T19:04:41.357Z,28.40
2022-11-07T19:07:09.460Z,31.65
2022-11-07T19:09:37.992Z,28.20
2022-11-07T19:12:04.965Z,26.67
2022-11-07T19:14:32.394Z,34.35
2022-11-07T19:17:00.281Z,27.65
2022-11-07T19:19:27.033Z,25.77
2022-11-07T19:21:53.736Z,28.05
2022-11-07T19:24:20.553Z,28.65
2022-11-07T19:26:47.332Z,28.88
2022-11-07T19:29:14.046Z,22.52
2022-11-07T19:31:40.786Z,27.40
2022-11-07T19:34:07.596Z,22.08
2022-11-07T19:36:35.376Z,24.08
2022-11-07T19:39:03.078Z,22.05
2022-11-07T19:41:30.083Z,27.15
2022-11-07T19:43:57.437Z,26.45
2022-11-07T19:46:24.668Z,24.98
2022-11-07T19:51:45.164Z,35.30
2022-11-07T19:54:12.351Z,33.03
2022-11-07T19:56:40.200Z,44.15
2022-11-07T19:59:06.928Z,33.90
2022-11-07T20:01:35.254Z,36.60
2022-11-07T20:04:03.484Z,35.22
2022-11-07T20:06:35.667Z,35.42
2022-11-07T20:09:06.239Z,34.47
2022-11-07T20:11:33.148Z,35.03
2022-11-07T20:14:03.579Z,32.45
2022-11-07T20:16:33.231Z,35.80
2022-11-07T20:19:00.703Z,34.05
2022-11-07T20:21:29.114Z,33.30
2022-11-07T20:23:58.105Z,38.05
2022-11-07T20:26:26.873Z,35.03
2022-11-07T20:28:53.814Z,40.72
2022-11-07T20:31:23.940Z,36.55
2022-11-07T20:33:51.079Z,35.05
2022-11-07T20:36:18.811Z,39.50
2022-11-07T20:38:45.696Z,35.75
2022-11-07T20:41:13.430Z,40.72
2022-11-07T20:43:41.429Z,34.03
2022-11-07T20:46:11.043Z,37.92
2022-11-07T20:48:38.912Z,35.60
2022-11-07T20:51:08.558Z,33.70
2022-11-07T20:53:36.479Z,34.35
2022-11-07T20:56:05.366Z,34.45
2022-11-07T20:58:38.033Z,33.53
2022-11-07T21:01:06.410Z,37.53
2022-11-07T21:03:35.031Z,35.40
2022-11-07T21:06:01.966Z,35.38
2022-11-07T21:08:36.993Z,33.28
2022-11-07T21:11:04.130Z,37.60
2022-11-07T21:13:30.905Z,33.92
2022-11-07T21:15:57.820Z,32.10
2022-11-07T21:18:24.846Z,30.30
2022-11-07T21:20:51.652Z,33.67
2022-11-07T21:23:18.672Z,33.85
2022-11-07T21:25:48.521Z,34.75
2022-11-07T21:28:17.907Z,32.78
2022-11-07T21:30:57.860Z,34.53
2022-11-07T21:33:25.182Z,33.13
2022-11-07T21:35:52.024Z,31.00
2022-11-07T21:38:18.724Z,38.15
2022-11-07T21:40:45.552Z,31.50
2022-11-07T21:43:12.389Z,30.02
2022-11-07T21:45:39.189Z,29.27
2022-11-07T21:48:06.137Z,34.90
2022-11-07T21:50:44.794Z,29.60
2022-11-07T21:53:12.159Z,28.83
2022-11-07T21:55:38.908Z,32.03
2022-11-07T21:58:07.061Z,32.67
2022-11-07T22:00:36.771Z,33.13
2022-11-07T22:03:04.313Z,30.70
2022-11-07T22:05:31.046Z,30.55
2022-11-07T22:07:58.058Z,37.80
2022-11-07T22:10:24.817Z,34.78
2022-11-07T22:12:52.828Z,38.97
2022-11-07T22:15:20.146Z,41.58
2022-11-07T22:17:48.109Z,49.08
2022-11-07T22:20:16.440Z,49.05
2022-11-07T22:22:43.817Z,48.53
2022-11-07T22:25:10.739Z,51.53
2022-11-07T22:27:37.572Z,52.28
2022-11-07T22:30:05.575Z,50.60
2022-11-07T22:32:32.301Z,49.85
2022-11-07T22:34:59.038Z,51.97
2022-11-07T22:37:25.797Z,52.08
2022-11-07T22:39:53.324Z,51.38
2022-11-07T22:42:23.742Z,48.85
2022-11-07T22:44:51.641Z,45.80
2022-11-07T22:47:19.569Z,52.80
2022-11-07T22:49:46.249Z,51.72
2022-11-07T22:52:12.983Z,49.75
2022-11-07T22:54:39.650Z,52.20
2022-11-07T22:57:06.349Z,61.78
2022-11-07T22:59:33.262Z,53.47
2022-11-07T23:02:00.048Z,56.78
2022-11-07T23:04:32.441Z,59.72
2022-11-07T23:06:59.638Z,56.35
2022-11-07T23:09:26.365Z,62.80
2022-11-07T23:11:53.208Z,53.80
2022-11-07T23:14:21.958Z,59.92
2022-11-07T23:16:51.102Z,59.28
2022-11-07T23:19:19.902Z,63.78
2022-11-07T23:21:47.001Z,65.72
2022-11-07T23:24:13.959Z,65.78
2022-11-07T23:26:40.820Z,67.22
2022-11-07T23:29:33.907Z,64.20
2022-11-07T23:32:00.654Z,63.42
2022-11-07T23:34:27.474Z,66.05
2022-11-07T23:36:54.289Z,62.95
2022-11-07T23:39:23.383Z,87.15
2022-11-07T23:41:51.268Z,78.05
2022-11-07T23:44:17.972Z,127.65
2022-11-07T23:47:03.260Z,133.48
2022-11-07T23:49:48.806Z,118.68
2022-11-07T23:52:18.045Z,139.55
2022-11-07T23:55:03.241Z,118.70
2022-11-07T23:57:34.295Z,202.88
